createdAt,value
2022-12-05T00:01:27.536Z,98904.06
2022-12-05T00:02:51.224Z,98899.75
2022-12-05T00:04:15.186Z,98910.94
2022-12-05T00:05:41.524Z,98907.59
2022-12-05T00:07:05.230Z,98907.59
2022-12-05T00:08:28.024Z,98908.41
2022-12-05T00:09:51.825Z,98913.56
2022-12-05T00:11:17.044Z,98913.50
2022-12-05T00:12:40.935Z,98920.25
2022-12-05T00:14:04.727Z,98917.59
2022-12-05T00:15:28.417Z,98916.75
2022-12-05T00:16:53.618Z,98911.69
2022-12-05T00:18:17.345Z,98912.59
2022-12-05T00:19:41.423Z,98908.38
2022-12-05T00:21:04.565Z,98910.94
2022-12-05T00:22:28.292Z,98920.38
2022-12-05T00:23:51.755Z,98915.31
2022-12-05T00:25:15.571Z,98916.22
2022-12-05T00:26:39.976Z,98910.16
2022-12-05T00:28:03.658Z,98905.00
2022-12-05T00:29:27.285Z,98898.94
2022-12-05T00:30:50.157Z,98892.84
2022-12-05T00:32:15.447Z,98894.50
2022-12-05T00:33:38.574Z,98895.44
2022-12-05T00:35:02.650Z,98902.22
2022-12-05T00:36:27.522Z,98896.25
2022-12-05T00:37:51.223Z,98895.44
2022-12-05T00:39:15.562Z,98892.84
2022-12-05T00:40:39.257Z,98903.97
2022-12-05T00:42:02.965Z,98902.31
2022-12-05T00:43:25.640Z,98900.66
2022-12-05T00:44:50.883Z,98897.16
2022-12-05T00:46:18.228Z,98905.72
2022-12-05T00:47:43.396Z,98894.59
2022-12-05T00:49:07.223Z,98891.19
2022-12-05T00:50:31.108Z,98896.34
2022-12-05T00:51:54.844Z,98887.78
2022-12-05T00:53:17.578Z,98887.81
2022-12-05T00:54:41.316Z,98894.72
2022-12-05T00:56:04.683Z,98892.13
2022-12-05T00:57:28.536Z,98895.63
2022-12-05T00:58:52.957Z,98898.13
2022-12-05T01:00:17.618Z,98894.72
2022-12-05T01:01:42.582Z,98891.31
2022-12-05T01:03:07.770Z,98902.44
2022-12-05T01:04:31.594Z,98894.63
2022-12-05T01:05:54.426Z,98892.94
2022-12-05T01:07:18.185Z,98890.34
2022-12-05T01:08:40.992Z,98883.50
2022-12-05T01:10:05.390Z,98877.53
2022-12-05T01:11:28.753Z,98875.78
2022-12-05T01:12:52.418Z,98866.41
2022-12-05T01:14:17.814Z,98864.75
2022-12-05T01:15:40.404Z,98876.84
2022-12-05T01:17:04.167Z,98883.66
2022-12-05T01:18:28.645Z,98866.50
2022-12-05T01:19:52.354Z,98872.47
2022-12-05T01:21:15.058Z,98869.06
2022-12-05T01:22:38.764Z,98874.13
2022-12-05T01:24:01.474Z,98874.13
2022-12-05T01:25:25.162Z,98877.53
2022-12-05T01:26:48.152Z,98874.97
2022-12-05T01:28:11.884Z,98868.97
2022-12-05T01:29:35.667Z,98875.03
2022-12-05T01:30:58.291Z,98880.19
2022-12-05T01:32:22.110Z,98875.94
2022-12-05T01:33:46.366Z,98878.53
2022-12-05T01:35:10.870Z,98879.34
2022-12-05T01:36:34.449Z,98869.06
2022-12-05T01:37:58.180Z,98875.13
2022-12-05T01:39:21.881Z,98875.94
2022-12-05T01:40:44.520Z,98865.59
2022-12-05T01:42:08.299Z,98869.78
2022-12-05T01:43:31.500Z,98869.78
2022-12-05T01:45:08.058Z,98866.28
2022-12-05T01:46:32.565Z,98877.50
2022-12-05T01:47:57.125Z,98865.47
2022-12-05T01:49:24.630Z,98873.09
2022-12-05T01:50:48.119Z,98868.88
2022-12-05T01:52:16.203Z,98868.78
2022-12-05T01:53:40.274Z,98872.19
2022-12-05T01:55:07.822Z,98874.69
2022-12-05T01:56:33.074Z,98867.81
2022-12-05T01:57:57.593Z,98872.09
2022-12-05T01:59:23.363Z,98862.69
2022-12-05T02:00:47.460Z,98872.09
2022-12-05T02:02:10.358Z,98864.38
2022-12-05T02:03:34.644Z,98871.28
2022-12-05T02:05:04.233Z,98867.81
2022-12-05T02:06:28.785Z,98873.94
2022-12-05T02:07:52.855Z,98869.63
2022-12-05T02:09:18.014Z,98867.94
2022-12-05T02:10:43.617Z,98869.63
2022-12-05T02:12:06.712Z,98873.94
2022-12-05T02:13:39.974Z,98860.22
2022-12-05T02:15:15.681Z,98861.16
2022-12-05T02:16:49.122Z,98861.19
2022-12-05T02:18:42.721Z,98855.22
2022-12-05T02:20:14.809Z,98852.63
2022-12-05T02:21:38.974Z,98857.84
2022-12-05T02:23:33.132Z,98862.09
2022-12-05T02:24:54.566Z,98864.81
2022-12-05T02:26:27.164Z,98869.97
2022-12-05T02:27:43.973Z,98853.63
2022-12-05T02:29:20.774Z,98860.44
2022-12-05T02:30:25.105Z,98863.09
2022-12-05T02:31:35.310Z,98855.28
2022-12-05T02:32:52.200Z,98854.38
2022-12-05T02:34:03.845Z,98862.94
2022-12-05T02:35:13.088Z,98866.34
2022-12-05T02:36:19.575Z,98857.72
2022-12-05T02:37:26.884Z,98851.69
2022-12-05T02:38:33.083Z,98855.84
2022-12-05T02:39:41.364Z,98863.56
2022-12-05T02:40:50.398Z,98860.84
2022-12-05T02:41:57.080Z,98855.72
2022-12-05T02:43:02.546Z,98862.53
2022-12-05T02:44:07.863Z,98857.38
2022-12-05T02:45:12.923Z,98865.94
2022-12-05T02:46:20.540Z,98863.28
2022-12-05T02:47:26.914Z,98862.41
2022-12-05T02:48:30.996Z,98864.06
2022-12-05T02:49:36.562Z,98857.16
2022-12-05T02:50:40.862Z,98860.56
2022-12-05T02:51:44.962Z,98864.81
2022-12-05T02:52:51.004Z,98861.41
2022-12-05T02:53:55.617Z,98861.47
2022-12-05T02:54:59.944Z,98860.56
2022-12-05T02:56:03.683Z,98854.69
2022-12-05T02:57:07.905Z,98854.69
2022-12-05T02:58:15.123Z,98867.53
2022-12-05T02:59:23.327Z,98864.13
2022-12-05T03:00:26.525Z,98867.53
2022-12-05T03:01:33.513Z,98857.16
2022-12-05T03:02:39.374Z,98860.56
2022-12-05T03:03:43.194Z,98870.88
2022-12-05T03:04:46.105Z,98867.38
2022-12-05T03:05:53.848Z,98863.91
2022-12-05T03:07:00.063Z,98869.91
2022-12-05T03:08:05.041Z,98869.91
2022-12-05T03:09:10.402Z,98870.75
2022-12-05T03:10:15.137Z,98871.63
2022-12-05T03:11:17.925Z,98870.78
2022-12-05T03:12:24.244Z,98865.66
2022-12-05T03:13:28.391Z,98870.78
2022-12-05T03:14:36.194Z,98872.53
2022-12-05T03:15:41.324Z,98867.38
2022-12-05T03:16:49.953Z,98871.63
2022-12-05T03:17:54.814Z,98869.91
2022-12-05T03:19:00.606Z,98870.75
2022-12-05T03:20:06.472Z,98862.94
2022-12-05T03:21:15.177Z,98863.78
2022-12-05T03:22:22.924Z,98864.59
2022-12-05T03:23:29.873Z,98868.91
2022-12-05T03:24:35.242Z,98870.66
2022-12-05T03:25:48.315Z,98870.66
2022-12-05T03:26:56.961Z,98864.75
2022-12-05T03:28:06.044Z,98862.25
2022-12-05T03:29:23.304Z,98868.28
2022-12-05T03:30:27.465Z,98858.91
2022-12-05T03:31:36.123Z,98862.31
2022-12-05T03:32:44.735Z,98859.75
2022-12-05T03:33:51.345Z,98873.53
2022-12-05T03:35:03.974Z,98872.63
2022-12-05T03:36:12.314Z,98877.69
2022-12-05T03:37:22.259Z,98874.19
2022-12-05T03:38:27.444Z,98869.91
2022-12-05T03:39:33.202Z,98868.09
2022-12-05T03:40:40.244Z,98867.34
2022-12-05T03:41:51.307Z,98856.19
2022-12-05T03:42:56.855Z,98863.06
2022-12-05T03:44:03.033Z,98861.41
2022-12-05T03:45:09.932Z,98866.56
2022-12-05T03:46:17.927Z,98863.97
2022-12-05T03:47:24.264Z,98861.41
2022-12-05T03:48:33.452Z,98865.59
2022-12-05T03:49:38.564Z,98858.63
2022-12-05T03:50:44.365Z,98868.00
2022-12-05T03:51:52.675Z,98872.34
2022-12-05T03:53:19.123Z,98873.16
2022-12-05T03:54:25.207Z,98879.94
2022-12-05T03:55:30.285Z,98875.59
2022-12-05T03:56:37.495Z,98870.47
2022-12-05T03:57:44.081Z,98868.72
2022-12-05T03:58:51.291Z,98853.28
2022-12-05T03:59:58.368Z,98867.81
2022-12-05T04:01:03.279Z,98880.69
2022-12-05T04:02:11.235Z,98884.09
2022-12-05T04:03:18.023Z,98874.69
2022-12-05T04:04:26.535Z,98881.50
2022-12-05T04:05:34.044Z,98876.38
2022-12-05T04:06:39.044Z,98870.31
2022-12-05T04:07:43.741Z,98864.31
2022-12-05T04:08:49.965Z,98857.38
2022-12-05T04:09:57.937Z,98854.72
2022-12-05T04:11:04.207Z,98854.72
2022-12-05T04:12:11.873Z,98853.81
2022-12-05T04:13:18.143Z,98852.06
2022-12-05T04:14:27.995Z,98853.78
2022-12-05T04:15:52.311Z,98845.19
2022-12-05T04:17:03.744Z,98851.25
2022-12-05T04:18:07.392Z,98850.41
2022-12-05T04:19:15.927Z,98855.47
2022-12-05T04:20:41.529Z,98857.09
2022-12-05T04:21:47.944Z,98854.59
2022-12-05T04:22:51.044Z,98845.97
2022-12-05T04:24:08.573Z,98855.28
2022-12-05T04:25:31.669Z,98845.81
2022-12-05T04:26:36.304Z,98824.47
2022-12-05T04:27:42.512Z,98827.88
2022-12-05T04:28:52.673Z,98826.13
2022-12-05T04:30:03.734Z,98827.03
2022-12-05T04:31:09.547Z,98826.13
2022-12-05T04:32:14.044Z,98820.97
2022-12-05T04:33:19.962Z,98811.59
2022-12-05T04:34:23.476Z,98817.47
2022-12-05T04:35:31.850Z,98827.78
2022-12-05T04:36:39.305Z,98834.63
2022-12-05T04:37:46.975Z,98832.06
2022-12-05T04:38:52.678Z,98828.56
2022-12-05T04:40:00.271Z,98836.13
2022-12-05T04:41:05.544Z,98827.53
2022-12-05T04:42:10.315Z,98824.03
2022-12-05T04:43:14.841Z,98825.69
2022-12-05T04:44:19.685Z,98819.63
2022-12-05T04:45:24.504Z,98826.44
2022-12-05T04:46:27.477Z,98820.47
2022-12-05T04:47:33.892Z,98815.31
2022-12-05T04:48:39.224Z,98812.81
2022-12-05T04:49:45.968Z,98807.66
2022-12-05T04:50:55.864Z,98808.59
2022-12-05T04:52:03.302Z,98806.00
2022-12-05T04:53:07.511Z,98803.50
2022-12-05T04:54:14.888Z,98802.59
2022-12-05T04:55:25.966Z,98797.44
2022-12-05T04:56:30.993Z,98800.03
2022-12-05T04:57:38.266Z,98793.13
2022-12-05T04:58:40.952Z,98794.78
2022-12-05T04:59:44.766Z,98793.06
2022-12-05T05:00:52.433Z,98790.41
2022-12-05T05:01:59.846Z,98794.72
2022-12-05T05:03:07.966Z,98798.19
2022-12-05T05:04:15.784Z,98802.53
2022-12-05T05:05:19.552Z,98800.84
2022-12-05T05:06:24.678Z,98799.13
2022-12-05T05:07:27.548Z,98799.13
2022-12-05T05:08:31.553Z,98801.59
2022-12-05T05:09:34.364Z,98800.78
2022-12-05T05:10:41.525Z,98793.88
2022-12-05T05:11:44.223Z,98798.19
2022-12-05T05:12:47.903Z,98802.53
2022-12-05T05:13:51.927Z,98797.38
2022-12-05T05:14:54.652Z,98802.53
2022-12-05T05:15:58.448Z,98808.50
2022-12-05T05:17:01.557Z,98811.91
2022-12-05T05:18:05.538Z,98809.28
2022-12-05T05:19:09.542Z,98807.47
2022-12-05T05:20:25.624Z,98806.53
2022-12-05T05:21:31.832Z,98804.78
2022-12-05T05:22:35.595Z,98810.78
2022-12-05T05:23:38.285Z,98814.19
2022-12-05T05:24:42.044Z,98803.00
2022-12-05T05:25:44.743Z,98798.72
2022-12-05T05:26:53.888Z,98803.84
2022-12-05T05:27:59.656Z,98799.56
2022-12-05T05:29:03.616Z,98806.47
2022-12-05T05:30:07.622Z,98805.56
2022-12-05T05:31:11.585Z,98803.88
2022-12-05T05:32:14.413Z,98809.88
2022-12-05T05:33:18.294Z,98815.88
2022-12-05T05:34:20.966Z,98813.44
2022-12-05T05:35:24.904Z,98804.13
2022-12-05T05:36:29.583Z,98801.59
2022-12-05T05:37:33.424Z,98800.84
2022-12-05T05:38:37.464Z,98800.06
2022-12-05T05:39:41.186Z,98807.13
2022-12-05T05:40:44.947Z,98806.44
2022-12-05T05:41:48.747Z,98806.56
2022-12-05T05:42:51.473Z,98801.59
2022-12-05T05:43:55.455Z,98801.72
2022-12-05T05:44:58.214Z,98806.19
2022-12-05T05:46:05.259Z,98812.28
2022-12-05T05:47:08.151Z,98809.84
2022-12-05T05:48:11.884Z,98815.09
2022-12-05T05:49:14.527Z,98810.09
2022-12-05T05:50:21.762Z,98821.34
2022-12-05T05:51:28.121Z,98823.22
2022-12-05T05:52:34.981Z,98828.53
2022-12-05T05:53:39.109Z,98824.34
2022-12-05T05:54:42.154Z,98823.59
2022-12-05T05:55:46.004Z,98818.56
2022-12-05T05:56:48.714Z,98816.06
2022-12-05T05:57:52.425Z,98819.56
2022-12-05T05:58:56.907Z,98811.91
2022-12-05T06:00:01.046Z,98821.34
2022-12-05T06:01:05.056Z,98812.03
2022-12-05T06:02:08.873Z,98825.81
2022-12-05T06:03:12.894Z,98819.84
2022-12-05T06:04:15.912Z,98821.56
2022-12-05T06:05:20.032Z,98814.72
2022-12-05T06:06:23.563Z,98811.41
2022-12-05T06:07:27.465Z,98813.97
2022-12-05T06:08:32.334Z,98814.81
2022-12-05T06:09:36.234Z,98811.50
2022-12-05T06:10:40.294Z,98808.91
2022-12-05T06:11:43.482Z,98818.38
2022-12-05T06:12:47.584Z,98815.84
2022-12-05T06:13:51.382Z,98815.09
2022-12-05T06:14:55.145Z,98816.00
2022-12-05T06:15:57.965Z,98813.47
2022-12-05T06:17:01.724Z,98811.72
2022-12-05T06:18:04.567Z,98816.97
2022-12-05T06:19:08.321Z,98812.72
2022-12-05T06:20:11.679Z,98817.03
2022-12-05T06:21:16.490Z,98811.06
2022-12-05T06:22:19.422Z,98820.50
2022-12-05T06:23:23.363Z,98821.34
2022-12-05T06:24:27.533Z,98821.34
2022-12-05T06:25:31.295Z,98812.00
2022-12-05T06:26:33.942Z,98817.22
2022-12-05T06:27:37.904Z,98814.66
2022-12-05T06:28:40.894Z,98816.41
2022-12-05T06:29:44.663Z,98827.53
2022-12-05T06:30:47.824Z,98818.97
2022-12-05T06:31:51.591Z,98813.00
2022-12-05T06:32:54.449Z,98827.59
2022-12-05T06:34:01.763Z,98815.56
2022-12-05T06:35:15.384Z,98821.63
2022-12-05T06:36:20.554Z,98818.22
2022-12-05T06:37:23.219Z,98819.94
2022-12-05T06:38:26.973Z,98815.56
2022-12-05T06:39:32.686Z,98813.81
2022-12-05T06:40:35.595Z,98809.53
2022-12-05T06:41:39.437Z,98820.63
2022-12-05T06:42:42.108Z,98817.09
2022-12-05T06:43:45.858Z,98810.16
2022-12-05T06:44:48.742Z,98812.59
2022-12-05T06:45:52.708Z,98819.41
2022-12-05T06:46:55.825Z,98812.44
2022-12-05T06:47:59.516Z,98817.47
2022-12-05T06:49:02.463Z,98812.25
2022-12-05T06:50:07.279Z,98816.44
2022-12-05T06:51:10.717Z,98812.03
2022-12-05T06:52:14.494Z,98811.97
2022-12-05T06:53:17.241Z,98800.75
2022-12-05T06:54:21.159Z,98810.09
2022-12-05T06:55:25.283Z,98815.09
2022-12-05T06:56:29.953Z,98818.44
2022-12-05T06:57:32.612Z,98821.75
2022-12-05T06:58:36.338Z,98833.66
2022-12-05T06:59:40.142Z,98825.78
2022-12-05T07:01:15.645Z,98827.31
2022-12-05T07:02:18.570Z,98822.19
2022-12-05T07:03:21.325Z,98821.22
2022-12-05T07:04:25.314Z,98821.13
2022-12-05T07:05:28.015Z,98825.38
2022-12-05T07:06:31.733Z,98829.56
2022-12-05T07:07:34.579Z,98828.66
2022-12-05T07:08:38.335Z,98824.25
2022-12-05T07:09:48.620Z,98824.22
2022-12-05T07:10:53.283Z,98832.69
2022-12-05T07:11:57.076Z,98826.63
2022-12-05T07:12:59.686Z,98831.69
2022-12-05T07:14:10.426Z,98837.63
2022-12-05T07:15:22.954Z,98836.63
2022-12-05T07:16:25.808Z,98838.31
2022-12-05T07:17:29.515Z,98839.81
2022-12-05T07:18:32.248Z,98838.03
2022-12-05T07:19:36.115Z,98837.03
2022-12-05T07:21:03.992Z,98830.94
2022-12-05T07:22:02.507Z,98838.44
2022-12-05T07:23:05.174Z,98834.94
2022-12-05T07:24:09.076Z,98838.19
2022-12-05T07:25:11.768Z,98843.13
2022-12-05T07:26:19.012Z,98848.00
2022-12-05T07:27:26.892Z,98841.78
2022-12-05T07:28:31.637Z,98841.66
2022-12-05T07:29:34.335Z,98842.25
2022-12-05T07:30:38.175Z,98847.19
2022-12-05T07:31:41.988Z,98841.88
2022-12-05T07:32:45.745Z,98843.31
2022-12-05T07:33:48.641Z,98837.13
2022-12-05T07:34:55.221Z,98834.41
2022-12-05T07:36:02.013Z,98835.94
2022-12-05T07:37:05.776Z,98839.16
2022-12-05T07:38:08.437Z,98833.03
2022-12-05T07:39:12.191Z,98835.44
2022-12-05T07:40:15.530Z,98832.66
2022-12-05T07:41:22.193Z,98838.50
2022-12-05T07:42:24.972Z,98839.09
2022-12-05T07:43:28.674Z,98844.84
2022-12-05T07:44:31.633Z,98845.31
2022-12-05T07:45:36.077Z,98842.41
2022-12-05T07:46:38.972Z,98841.34
2022-12-05T07:47:42.854Z,98839.44
2022-12-05T07:48:45.865Z,98835.88
2022-12-05T07:49:49.660Z,98840.94
2022-12-05T07:50:52.331Z,98835.66
2022-12-05T07:51:56.004Z,98833.81
2022-12-05T07:52:58.652Z,98843.06
2022-12-05T07:54:02.494Z,98840.16
2022-12-05T07:55:07.441Z,98850.16
2022-12-05T07:56:12.044Z,98847.34
2022-12-05T07:57:16.170Z,98841.13
2022-12-05T07:58:20.183Z,98834.88
2022-12-05T07:59:22.804Z,98834.69
2022-12-05T08:00:26.830Z,98852.63
2022-12-05T08:01:30.446Z,98839.53
2022-12-05T08:02:37.715Z,98834.22
2022-12-05T08:03:44.743Z,98825.47
2022-12-05T08:04:47.642Z,98830.38
2022-12-05T08:05:51.506Z,98822.59
2022-12-05T08:06:54.195Z,98835.31
2022-12-05T08:07:57.966Z,98830.09
2022-12-05T08:09:00.755Z,98827.41
2022-12-05T08:10:04.890Z,98833.31
2022-12-05T08:11:09.063Z,98829.91
2022-12-05T08:12:13.530Z,98831.50
2022-12-05T08:13:18.465Z,98832.31
2022-12-05T08:14:22.267Z,98828.09
2022-12-05T08:15:25.955Z,98834.97
2022-12-05T08:16:30.743Z,98827.91
2022-12-05T08:17:34.133Z,98828.47
2022-12-05T08:18:38.122Z,98828.34
2022-12-05T08:19:41.853Z,98822.16
2022-12-05T08:20:44.579Z,98821.91
2022-12-05T08:21:48.863Z,98826.97
2022-12-05T08:22:55.056Z,98816.56
2022-12-05T08:23:58.606Z,98821.56
2022-12-05T08:25:03.018Z,98826.66
2022-12-05T08:26:11.353Z,98821.41
2022-12-05T08:27:14.123Z,98824.72
2022-12-05T08:28:19.866Z,98822.91
2022-12-05T08:29:24.946Z,98820.22
2022-12-05T08:30:27.908Z,98820.91
2022-12-05T08:31:33.334Z,98826.78
2022-12-05T08:32:37.133Z,98823.38
2022-12-05T08:33:40.033Z,98826.72
2022-12-05T08:34:43.764Z,98817.03
2022-12-05T08:35:46.495Z,98828.88
2022-12-05T08:36:50.676Z,98828.63
2022-12-05T08:37:53.391Z,98836.03
2022-12-05T08:38:58.276Z,98840.09
2022-12-05T08:40:00.986Z,98835.50
2022-12-05T08:41:05.126Z,98843.91
2022-12-05T08:42:08.862Z,98843.84
2022-12-05T08:43:12.564Z,98840.22
2022-12-05T08:44:17.315Z,98834.97
2022-12-05T08:45:21.097Z,98842.47
2022-12-05T08:46:23.999Z,98838.69
2022-12-05T08:47:32.323Z,98834.09
2022-12-05T08:48:37.244Z,98833.81
2022-12-05T08:49:40.974Z,98834.38
2022-12-05T08:50:43.746Z,98825.53
2022-12-05T08:51:47.697Z,98829.50
2022-12-05T08:52:51.623Z,98837.66
2022-12-05T08:53:56.611Z,98831.31
2022-12-05T08:55:00.666Z,98835.06
2022-12-05T08:56:05.122Z,98833.59
2022-12-05T08:57:08.853Z,98834.09
2022-12-05T08:58:11.775Z,98837.97
2022-12-05T08:59:15.609Z,98834.16
2022-12-05T09:00:21.826Z,98826.03
2022-12-05T09:01:30.559Z,98822.22
2022-12-05T09:02:35.233Z,98818.47
2022-12-05T09:03:40.101Z,98817.41
2022-12-05T09:04:50.879Z,98816.31
2022-12-05T09:05:56.294Z,98815.19
2022-12-05T09:07:04.363Z,98812.41
2022-12-05T09:08:08.944Z,98822.75
2022-12-05T09:09:13.187Z,98821.81
2022-12-05T09:10:17.161Z,98821.81
2022-12-05T09:11:21.795Z,98823.50
2022-12-05T09:12:25.543Z,98820.09
2022-12-05T09:13:28.262Z,98814.81
2022-12-05T09:14:33.207Z,98818.13
2022-12-05T09:15:39.093Z,98803.34
2022-12-05T09:16:53.337Z,98806.53
2022-12-05T09:17:56.074Z,98802.13
2022-12-05T09:18:59.875Z,98805.53
2022-12-05T09:20:05.345Z,98802.94
2022-12-05T09:21:08.593Z,98802.84
2022-12-05T09:22:14.244Z,98803.50
2022-12-05T09:23:17.048Z,98801.63
2022-12-05T09:24:21.097Z,98798.75
2022-12-05T09:25:23.832Z,98795.03
2022-12-05T09:26:28.685Z,98802.41
2022-12-05T09:27:33.758Z,98802.97
2022-12-05T09:28:36.764Z,98802.69
2022-12-05T09:29:40.763Z,98799.69
2022-12-05T09:30:44.951Z,98800.94
2022-12-05T09:31:51.796Z,98798.88
2022-12-05T09:32:55.591Z,98803.88
2022-12-05T09:33:59.512Z,98800.34
2022-12-05T09:35:03.267Z,98805.47
2022-12-05T09:36:07.044Z,98807.22
2022-12-05T09:37:37.339Z,98797.69
2022-12-05T09:38:35.494Z,98796.94
2022-12-05T09:39:39.254Z,98798.72
2022-12-05T09:40:43.288Z,98801.47
2022-12-05T09:42:18.523Z,98793.00
2022-12-05T09:43:26.053Z,98790.81
2022-12-05T09:44:37.902Z,98795.16
2022-12-05T09:45:47.771Z,98795.22
2022-12-05T09:46:54.188Z,98791.75
2022-12-05T09:48:01.564Z,98800.41
2022-12-05T09:49:06.022Z,98792.63
2022-12-05T09:50:16.212Z,98791.81
2022-12-05T09:51:20.003Z,98794.41
2022-12-05T09:52:26.497Z,98796.91
2022-12-05T09:53:32.248Z,98792.56
2022-12-05T09:54:34.994Z,98794.94
2022-12-05T09:55:46.136Z,98789.69
2022-12-05T09:56:51.606Z,98795.59
2022-12-05T09:57:58.462Z,98785.22
2022-12-05T09:59:02.256Z,98789.47
2022-12-05T10:00:07.144Z,98785.03
2022-12-05T10:01:31.092Z,98775.25
2022-12-05T10:02:45.747Z,98775.19
2022-12-05T10:04:03.215Z,98781.91
2022-12-05T10:05:09.915Z,98781.72
2022-12-05T10:06:17.498Z,98779.75
2022-12-05T10:07:26.165Z,98782.97
2022-12-05T10:08:35.214Z,98779.34
2022-12-05T10:09:50.366Z,98781.84
2022-12-05T10:11:01.412Z,98779.13
2022-12-05T10:12:11.112Z,98777.38
2022-12-05T10:13:23.776Z,98778.31
2022-12-05T10:14:32.631Z,98781.94
2022-12-05T10:15:38.551Z,98779.56
2022-12-05T10:16:48.405Z,98772.81
2022-12-05T10:17:57.872Z,98766.78
2022-12-05T10:19:05.749Z,98774.56
2022-12-05T10:20:14.563Z,98769.38
2022-12-05T10:21:21.725Z,98762.22
2022-12-05T10:22:29.323Z,98767.28
2022-12-05T10:23:56.963Z,98771.56
2022-12-05T10:25:02.973Z,98775.81
2022-12-05T10:26:09.687Z,98776.66
2022-12-05T10:27:18.347Z,98775.72
2022-12-05T10:28:30.644Z,98774.88
2022-12-05T10:29:37.543Z,98761.81
2022-12-05T10:30:42.609Z,98765.97
2022-12-05T10:31:49.706Z,98777.81
2022-12-05T10:32:53.992Z,98767.22
2022-12-05T10:34:07.974Z,98767.03
2022-12-05T10:35:18.034Z,98770.22
2022-12-05T10:36:20.743Z,98761.53
2022-12-05T10:37:25.602Z,98771.78
2022-12-05T10:38:31.225Z,98775.09
2022-12-05T10:39:34.010Z,98773.25
2022-12-05T10:40:39.821Z,98768.06
2022-12-05T10:41:43.535Z,98765.47
2022-12-05T10:42:46.666Z,98766.28
2022-12-05T10:43:51.998Z,98758.63
2022-12-05T10:44:58.988Z,98760.38
2022-12-05T10:46:03.869Z,98761.22
2022-12-05T10:47:10.333Z,98766.41
2022-12-05T10:48:15.671Z,98770.75
2022-12-05T10:49:20.423Z,98761.09
2022-12-05T10:50:26.623Z,98766.19
2022-12-05T10:51:37.010Z,98761.75
2022-12-05T10:52:40.081Z,98757.25
2022-12-05T10:53:45.294Z,98759.88
2022-12-05T10:54:51.354Z,98759.63
2022-12-05T10:56:28.612Z,98763.81
2022-12-05T10:57:26.294Z,98754.13
2022-12-05T10:58:30.983Z,98759.97
2022-12-05T10:59:46.462Z,98759.53
2022-12-05T11:00:55.375Z,98751.44
2022-12-05T11:02:01.093Z,98752.88
2022-12-05T11:03:06.064Z,98751.81
2022-12-05T11:04:22.811Z,98761.00
2022-12-05T11:05:31.089Z,98758.16
2022-12-05T11:06:33.863Z,98745.81
2022-12-05T11:07:48.496Z,98755.97
2022-12-05T11:09:10.055Z,98754.00
2022-12-05T11:10:26.442Z,98754.69
2022-12-05T11:11:33.539Z,98752.72
2022-12-05T11:12:39.205Z,98741.31
2022-12-05T11:13:53.354Z,98741.00
2022-12-05T11:15:13.176Z,98739.09
2022-12-05T11:16:25.318Z,98735.34
2022-12-05T11:17:32.934Z,98724.13
2022-12-05T11:18:38.034Z,98729.31
2022-12-05T11:19:41.781Z,98741.56
2022-12-05T11:20:44.696Z,98730.34
2022-12-05T11:21:49.459Z,98732.00
2022-12-05T11:22:54.225Z,98733.47
2022-12-05T11:23:59.256Z,98737.50
2022-12-05T11:25:02.325Z,98734.59
2022-12-05T11:26:06.365Z,98731.53
2022-12-05T11:27:30.132Z,98730.06
2022-12-05T11:28:38.575Z,98725.38
2022-12-05T11:29:42.573Z,98731.75
2022-12-05T11:30:57.992Z,98724.34
2022-12-05T11:32:02.414Z,98732.53
2022-12-05T11:33:14.164Z,98732.09
2022-12-05T11:34:22.806Z,98735.88
2022-12-05T11:35:28.804Z,98735.44
2022-12-05T11:36:40.015Z,98729.81
2022-12-05T11:37:46.812Z,98730.28
2022-12-05T11:38:50.725Z,98726.41
2022-12-05T11:39:53.691Z,98724.50
2022-12-05T11:41:06.191Z,98725.81
2022-12-05T11:42:30.964Z,98729.09
2022-12-05T11:43:54.021Z,98723.69
2022-12-05T11:45:07.574Z,98728.81
2022-12-05T11:46:22.292Z,98721.72
2022-12-05T11:47:41.994Z,98725.97
2022-12-05T11:48:56.535Z,98723.38
2022-12-05T11:50:20.312Z,98717.22
2022-12-05T11:51:34.415Z,98724.19
2022-12-05T11:52:48.191Z,98725.84
2022-12-05T11:54:11.396Z,98719.00
2022-12-05T11:55:17.122Z,98723.38
2022-12-05T11:56:33.662Z,98725.03
2022-12-05T11:57:54.875Z,98723.38
2022-12-05T11:59:12.365Z,98730.22
2022-12-05T12:00:25.112Z,98721.59
2022-12-05T12:01:38.177Z,98718.06
2022-12-05T12:02:54.361Z,98717.09
2022-12-05T12:04:42.399Z,98712.75
2022-12-05T12:05:55.915Z,98722.31
2022-12-05T12:07:08.945Z,98724.00
2022-12-05T12:08:20.139Z,98717.00
2022-12-05T12:09:32.123Z,98718.53
2022-12-05T12:10:42.286Z,98715.09
2022-12-05T12:11:50.804Z,98722.09
2022-12-05T12:13:03.005Z,98723.03
2022-12-05T12:14:15.736Z,98721.38
2022-12-05T12:15:34.706Z,98724.19
2022-12-05T12:16:45.525Z,98721.09
2022-12-05T12:17:55.421Z,98730.78
2022-12-05T12:19:34.063Z,98717.31
2022-12-05T12:20:49.540Z,98726.16
2022-12-05T12:22:08.955Z,98725.44
2022-12-05T12:23:33.805Z,98723.88
2022-12-05T12:24:50.874Z,98721.63
2022-12-05T12:26:04.934Z,98726.34
2022-12-05T12:27:17.297Z,98725.75
2022-12-05T12:28:33.350Z,98728.81
2022-12-05T12:29:47.983Z,98732.59
2022-12-05T12:31:04.323Z,98724.28
2022-12-05T12:32:18.013Z,98725.44
2022-12-05T12:33:31.144Z,98731.69
2022-12-05T12:34:43.870Z,98720.72
2022-12-05T12:35:52.951Z,98729.31
2022-12-05T12:37:00.545Z,98720.81
2022-12-05T12:38:26.894Z,98723.50
2022-12-05T12:39:37.833Z,98728.72
2022-12-05T12:40:48.303Z,98724.47
2022-12-05T12:42:02.756Z,98727.28
2022-12-05T12:43:25.257Z,98723.34
2022-12-05T12:45:10.907Z,98720.25
2022-12-05T12:46:24.901Z,98723.31
2022-12-05T12:47:40.310Z,98720.94
2022-12-05T12:49:00.620Z,98718.56
2022-12-05T12:50:09.035Z,98719.59
2022-12-05T12:51:15.690Z,98715.34
2022-12-05T12:52:22.627Z,98720.53
2022-12-05T12:53:43.534Z,98726.56
2022-12-05T12:55:08.758Z,98721.59
2022-12-05T12:56:22.349Z,98730.34
2022-12-05T12:57:30.373Z,98721.81
2022-12-05T12:58:46.135Z,98729.72
2022-12-05T12:59:59.011Z,98724.72
2022-12-05T13:01:08.244Z,98732.63
2022-12-05T13:02:16.585Z,98725.91
2022-12-05T13:03:23.688Z,98720.91
2022-12-05T13:04:31.515Z,98725.41
2022-12-05T13:05:36.444Z,98716.88
2022-12-05T13:06:45.879Z,98729.22
2022-12-05T13:07:51.957Z,98725.94
2022-12-05T13:08:58.803Z,98730.28
2022-12-05T13:10:06.850Z,98728.66
2022-12-05T13:11:12.544Z,98728.84
2022-12-05T13:12:19.274Z,98728.97
2022-12-05T13:13:24.343Z,98722.13
2022-12-05T13:14:28.923Z,98723.03
2022-12-05T13:15:37.380Z,98723.88
2022-12-05T13:16:46.125Z,98725.75
2022-12-05T13:17:50.705Z,98728.34
2022-12-05T13:18:54.772Z,98729.28
2022-12-05T13:19:58.952Z,98726.69
2022-12-05T13:21:05.123Z,98729.28
2022-12-05T13:22:10.721Z,98725.16
2022-12-05T13:23:16.408Z,98730.22
2022-12-05T13:24:21.412Z,98724.19
2022-12-05T13:25:28.818Z,98720.88
2022-12-05T13:26:34.499Z,98731.38
2022-12-05T13:27:38.475Z,98728.97
2022-12-05T13:28:52.124Z,98725.66
2022-12-05T13:29:57.802Z,98729.31
2022-12-05T13:31:02.784Z,98716.44
2022-12-05T13:32:08.854Z,98727.88
2022-12-05T13:33:25.590Z,98723.63
2022-12-05T13:34:47.733Z,98726.28
2022-12-05T13:36:12.882Z,98721.22
2022-12-05T13:37:41.219Z,98723.94
2022-12-05T13:39:02.345Z,98726.72
2022-12-05T13:40:25.189Z,98736.28
2022-12-05T13:41:58.934Z,98730.38
2022-12-05T13:43:03.845Z,98725.38
2022-12-05T13:44:12.679Z,98739.19